KSFO/SFO METAR and TAF weather

Enter ICAO airport designator
Station Type Date Time Source
KSFO METAR 2019/02/16 02:56 UTC NOAA

KSFO 160256Z 16006KT 10SM FEW023 FEW050 SCT150 08/04 A3004 RMK AO2 RAE08 SLP171 P0000 60000 T00830039 53011


Station Type Date Time Source
KSFO Decoded METAR 2019/02/16 02:56 UTC NOAA

SAN FRANCISCO INTERNATIONAL AIRPORT , CA, United States (KSFO) 37-37N 122-22W 26M
Feb 15, 2019 - 09:56 PM EST / 2019.02.16 0256 UTC
Wind: from the SSE (160 degrees) at 7 MPH (6 KT):0
Visibility: 10 mile(s):0
Sky conditions: partly cloudy
Precipitation last hour: A trace
Temperature: 46.9 F (8.3 C)
Dew Point: 39.0 F (3.9 C)
Relative Humidity: 73%
Pressure (altimeter): 30.04 in. Hg (1017 hPa)
Pressure tendency: 0.03 inches (1.1 hPa) higher than three hours ago
ob: KSFO 160256Z 16006KT 10SM FEW023 FEW050 SCT150 08/04 A3004 RMK AO2 RAE08 SLP171 P0000 60000 T00830039 53011
cycle: 3

Station Type Date Time Source
KSFO TAF 2019/02/16 03:58 UTC NOAA

TAF
AMD KSFO 160256Z 1603/1706 23012KT P6SM VCSH FEW040 BKN050 BKN080
FM160600 25015G22KT P6SM VCSH SCT040 BKN050 BKN100
TEMPO 1607/1611 5SM SHRA BKN030 OVC050
FM161100 25015KT P6SM VCSH SCT030 BKN050
FM161400 26012G18KT P6SM VCSH SCT030 BKN050
FM162000 28015G25KT P6SM VCSH SCT030 BKN050 BKN100


Example: see airport list